sensor_id;sensor_type;location;lat;lon;timestamp;pressure;altitude;pressure_sealevel;temperature;humidity
43934;BME280;59081;42.706;23.306;2023-04-22T00:01:26;94866.09;;;8.93;81.03
43934;BME280;59081;42.706;23.306;2023-04-22T00:03:53;94814.13;;;8.69;80.99
43934;BME280;59081;42.706;23.306;2023-04-22T00:06:18;94823.31;;;8.79;80.70
43934;BME280;59081;42.706;23.306;2023-04-22T00:08:44;94925.34;;;9.35;81.06
43934;BME280;59081;42.706;23.306;2023-04-22T00:11:10;94910.09;;;9.34;80.51
43934;BME280;59081;42.706;23.306;2023-04-22T00:13:36;94821.88;;;8.87;80.20
43934;BME280;59081;42.706;23.306;2023-04-22T00:16:02;94934.47;;;9.61;79.71
43934;BME280;59081;42.706;23.306;2023-04-22T00:18:28;94890.72;;;9.38;79.78
43934;BME280;59081;42.706;23.306;2023-04-22T00:20:54;94814.84;;;8.86;79.56
43934;BME280;59081;42.706;23.306;2023-04-22T00:23:19;94871.28;;;9.32;79.55
43934;BME280;59081;42.706;23.306;2023-04-22T00:25:45;94885.66;;;9.36;79.88
43934;BME280;59081;42.706;23.306;2023-04-22T00:28:11;94942.41;;;9.72;79.83
43934;BME280;59081;42.706;23.306;2023-04-22T00:30:36;94880.94;;;9.37;79.99
43934;BME280;59081;42.706;23.306;2023-04-22T00:33:04;94947.03;;;9.75;80.53
43934;BME280;59081;42.706;23.306;2023-04-22T00:35:30;94889.97;;;9.37;80.57
43934;BME280;59081;42.706;23.306;2023-04-22T00:37:56;94910.47;;;9.49;80.48
43934;BME280;59081;42.706;23.306;2023-04-22T00:40:21;94804.50;;;8.78;80.93
43934;BME280;59081;42.706;23.306;2023-04-22T00:42:49;94940.72;;;9.62;81.20
43934;BME280;59081;42.706;23.306;2023-04-22T00:45:15;94876.63;;;9.23;80.89
43934;BME280;59081;42.706;23.306;2023-04-22T00:47:44;94906.25;;;9.45;80.81
43934;BME280;59081;42.706;23.306;2023-04-22T00:50:10;94937.19;;;9.49;81.43
43934;BME280;59081;42.706;23.306;2023-04-22T00:52:36;94940.28;;;9.51;81.63
43934;BME280;59081;42.706;23.306;2023-04-22T00:55:01;94886.19;;;8.90;82.30
43934;BME280;59081;42.706;23.306;2023-04-22T00:57:28;94855.75;;;8.68;82.16
43934;BME280;59081;42.706;23.306;2023-04-22T00:59:55;94870.09;;;8.76;81.93
43934;BME280;59081;42.706;23.306;2023-04-22T01:02:21;94881.63;;;8.83;82.34
43934;BME280;59081;42.706;23.306;2023-04-22T01:04:47;94866.31;;;8.69;82.15
43934;BME280;59081;42.706;23.306;2023-04-22T01:07:13;94911.75;;;8.87;81.69
43934;BME280;59081;42.706;23.306;2023-04-22T01:09:39;94877.06;;;8.64;81.68
43934;BME280;59081;42.706;23.306;2023-04-22T01:12:05;94822.16;;;8.31;81.59
43934;BME280;59081;42.706;23.306;2023-04-22T01:14:31;94924.13;;;8.95;81.63
43934;BME280;59081;42.706;23.306;2023-04-22T01:16:57;94864.66;;;8.43;81.68
43934;BME280;59081;42.706;23.306;2023-04-22T01:19:23;94935.22;;;8.75;81.77
43934;BME280;59081;42.706;23.306;2023-04-22T01:21:52;94915.94;;;8.62;81.31
43934;BME280;59081;42.706;23.306;2023-04-22T01:24:18;94953.16;;;8.80;81.76
43934;BME280;59081;42.706;23.306;2023-04-22T01:26:45;94840.25;;;7.80;82.74
43934;BME280;59081;42.706;23.306;2023-04-22T01:29:14;94893.34;;;8.22;83.20
43934;BME280;59081;42.706;23.306;2023-04-22T01:31:40;94843.69;;;7.68;84.30
43934;BME280;59081;42.706;23.306;2023-04-22T01:34:06;94834.09;;;7.76;84.04
43934;BME280;59081;42.706;23.306;2023-04-22T01:36:32;94804.44;;;7.55;84.46
43934;BME280;59081;42.706;23.306;2023-04-22T01:38:59;94953.34;;;8.56;84.16
43934;BME280;59081;42.706;23.306;2023-04-22T01:41:24;94817.81;;;7.69;83.88
43934;BME280;59081;42.706;23.306;2023-04-22T01:43:52;94874.91;;;8.07;84.07
43934;BME280;59081;42.706;23.306;2023-04-22T01:46:20;94823.22;;;7.73;84.26
43934;BME280;59081;42.706;23.306;2023-04-22T01:48:46;94841.66;;;7.88;84.47
43934;BME280;59081;42.706;23.306;2023-04-22T01:51:16;94832.31;;;7.86;84.35
43934;BME280;59081;42.706;23.306;2023-04-22T01:53:44;94956.84;;;8.57;84.58
43934;BME280;59081;42.706;23.306;2023-04-22T01:56:10;94862.38;;;7.89;85.11
43934;BME280;59081;42.706;23.306;2023-04-22T01:58:40;94906.31;;;8.22;85.11
43934;BME280;59081;42.706;23.306;2023-04-22T02:01:10;94922.53;;;8.32;84.75
43934;BME280;59081;42.706;23.306;2023-04-22T02:03:36;94790.69;;;7.22;85.65
43934;BME280;59081;42.706;23.306;2023-04-22T02:06:02;94917.25;;;8.06;86.07
43934;BME280;59081;42.706;23.306;2023-04-22T02:08:28;94784.63;;;7.11;86.15
43934;BME280;59081;42.706;23.306;2023-04-22T02:10:53;94919.72;;;8.00;85.65
43934;BME280;59081;42.706;23.306;2023-04-22T02:13:19;94948.16;;;8.26;85.55
43934;BME280;59081;42.706;23.306;2023-04-22T02:15:45;94893.59;;;7.95;84.99
43934;BME280;59081;42.706;23.306;2023-04-22T02:18:10;94908.31;;;7.85;84.99
43934;BME280;59081;42.706;23.306;2023-04-22T02:20:36;94802.06;;;7.21;84.35
43934;BME280;59081;42.706;23.306;2023-04-22T02:23:05;94832.69;;;7.52;84.13
43934;BME280;59081;42.706;23.306;2023-04-22T02:25:31;94821.66;;;7.55;83.64
43934;BME280;59081;42.706;23.306;2023-04-22T02:27:56;94887.78;;;7.93;83.47
43934;BME280;59081;42.706;23.306;2023-04-22T02:30:23;94814.31;;;7.32;83.82
43934;BME280;59081;42.706;23.306;2023-04-22T02:32:48;94854.84;;;7.77;83.69
43934;BME280;59081;42.706;23.306;2023-04-22T02:35:14;94919.50;;;8.27;83.44
43934;BME280;59081;42.706;23.306;2023-04-22T02:37:40;94811.81;;;7.58;83.09
43934;BME280;59081;42.706;23.306;2023-04-22T02:40:08;94882.53;;;8.15;82.44
43934;BME280;59081;42.706;23.306;2023-04-22T02:42:34;94900.72;;;8.25;82.62
43934;BME280;59081;42.706;23.306;2023-04-22T02:45:00;94846.78;;;8.02;82.38
43934;BME280;59081;42.706;23.306;2023-04-22T02:47:25;94845.25;;;8.01;81.80
43934;BME280;59081;42.706;23.306;2023-04-22T02:49:51;94905.97;;;8.52;81.51
43934;BME280;59081;42.706;23.306;2023-04-22T02:52:19;94881.19;;;8.40;81.06
43934;BME280;59081;42.706;23.306;2023-04-22T02:54:45;94842.34;;;7.92;81.30
43934;BME280;59081;42.706;23.306;2023-04-22T02:57:10;94867.03;;;8.09;82.06
43934;BME280;59081;42.706;23.306;2023-04-22T02:59:39;94960.97;;;8.49;82.88
43934;BME280;59081;42.706;23.306;2023-04-22T03:02:04;94961.00;;;8.13;84.56
43934;BME280;59081;42.706;23.306;2023-04-22T03:04:30;94907.53;;;7.49;86.44
43934;BME280;59081;42.706;23.306;2023-04-22T03:06:57;94809.59;;;6.97;85.97
43934;BME280;59081;42.706;23.306;2023-04-22T03:09:26;94929.25;;;7.95;85.95
43934;BME280;59081;42.706;23.306;2023-04-22T03:11:52;94960.75;;;8.23;85.11
43934;BME280;59081;42.706;23.306;2023-04-22T03:14:17;94963.91;;;8.22;84.95
43934;BME280;59081;42.706;23.306;2023-04-22T03:16:43;94918.28;;;7.95;84.58
43934;BME280;59081;42.706;23.306;2023-04-22T03:19:08;94826.09;;;7.49;84.33
43934;BME280;59081;42.706;23.306;2023-04-22T03:21:34;94884.13;;;7.80;84.35
43934;BME280;59081;42.706;23.306;2023-04-22T03:23:59;94899.41;;;7.97;84.38
43934;BME280;59081;42.706;23.306;2023-04-22T03:26:25;94854.56;;;7.72;84.03
43934;BME280;59081;42.706;23.306;2023-04-22T03:28:51;94821.94;;;7.61;83.43
43934;BME280;59081;42.706;23.306;2023-04-22T03:31:16;94894.53;;;8.05;83.28
43934;BME280;59081;42.706;23.306;2023-04-22T03:33:52;94849.38;;;7.93;82.99
43934;BME280;59081;42.706;23.306;2023-04-22T03:36:18;94878.34;;;8.11;82.76
43934;BME280;59081;42.706;23.306;2023-04-22T03:38:43;94977.97;;;8.76;82.47
43934;BME280;59081;42.706;23.306;2023-04-22T03:41:09;94856.66;;;8.00;82.05
43934;BME280;59081;42.706;23.306;2023-04-22T03:43:35;94956.69;;;8.64;81.79
43934;BME280;59081;42.706;23.306;2023-04-22T03:46:02;94892.16;;;8.23;82.06
43934;BME280;59081;42.706;23.306;2023-04-22T03:48:28;94866.94;;;8.12;81.86
43934;BME280;59081;42.706;23.306;2023-04-22T03:50:59;94984.22;;;8.60;82.67
43934;BME280;59081;42.706;23.306;2023-04-22T03:53:24;94837.91;;;7.62;82.71
43934;BME280;59081;42.706;23.306;2023-04-22T03:55:50;94905.25;;;8.16;82.57
43934;BME280;59081;42.706;23.306;2023-04-22T03:58:18;94898.16;;;8.18;82.31
43934;BME280;59081;42.706;23.306;2023-04-22T04:00:44;94895.16;;;8.13;82.33
43934;BME280;59081;42.706;23.306;2023-04-22T04:03:09;94963.13;;;8.57;82.56
43934;BME280;59081;42.706;23.306;2023-04-22T04:05:35;94919.16;;;8.25;82.64
43934;BME280;59081;42.706;23.306;2023-04-22T04:08:01;95007.56;;;8.85;82.60
43934;BME280;59081;42.706;23.306;2023-04-22T04:10:27;94887.59;;;8.17;82.33
43934;BME280;59081;42.706;23.306;2023-04-22T04:12:53;94999.06;;;8.95;82.38
43934;BME280;59081;42.706;23.306;2023-04-22T04:15:18;94973.50;;;8.82;82.28
43934;BME280;59081;42.706;23.306;2023-04-22T04:17:47;94875.34;;;8.21;82.01
43934;BME280;59081;42.706;23.306;2023-04-22T04:20:14;95008.16;;;9.08;81.73
43934;BME280;59081;42.706;23.306;2023-04-22T04:22:42;94928.47;;;8.63;81.39
43934;BME280;59081;42.706;23.306;2023-04-22T04:25:08;94959.44;;;8.80;81.43
43934;BME280;59081;42.706;23.306;2023-04-22T04:27:35;94886.00;;;8.35;81.41
43934;BME280;59081;42.706;23.306;2023-04-22T04:30:04;94953.94;;;8.80;80.99
43934;BME280;59081;42.706;23.306;2023-04-22T04:32:30;94895.53;;;8.47;80.85
43934;BME280;59081;42.706;23.306;2023-04-22T04:34:58;94874.94;;;8.39;nan
43934;BME280;59081;42.706;23.306;2023-04-22T04:37:24;94934.63;;;8.67;80.53
43934;BME280;59081;42.706;23.306;2023-04-22T04:39:50;95022.28;;;9.23;81.02
43934;BME280;59081;42.706;23.306;2023-04-22T04:42:16;95024.53;;;9.28;79.98
43934;BME280;59081;42.706;23.306;2023-04-22T04:44:44;94982.16;;;8.97;79.79
43934;BME280;59081;42.706;23.306;2023-04-22T04:47:11;94949.88;;;8.68;79.40
43934;BME280;59081;42.706;23.306;2023-04-22T04:49:40;94909.75;;;8.42;79.19
43934;BME280;59081;42.706;23.306;2023-04-22T04:52:06;94927.34;;;8.61;79.33
43934;BME280;59081;42.706;23.306;2023-04-22T04:54:37;94953.84;;;8.67;78.73
43934;BME280;59081;42.706;23.306;2023-04-22T04:57:04;95047.72;;;9.27;78.83
43934;BME280;59081;42.706;23.306;2023-04-22T04:59:30;94935.50;;;8.48;78.65
43934;BME280;59081;42.706;23.306;2023-04-22T05:01:56;95020.00;;;9.05;78.44
43934;BME280;59081;42.706;23.306;2023-04-22T05:04:22;94953.00;;;8.54;78.50
43934;BME280;59081;42.706;23.306;2023-04-22T05:06:47;94900.13;;;8.18;78.49
43934;BME280;59081;42.706;23.306;2023-04-22T05:09:16;94936.72;;;8.47;78.43
43934;BME280;59081;42.706;23.306;2023-04-22T05:11:44;95017.50;;;9.11;78.33
43934;BME280;59081;42.706;23.306;2023-04-22T05:14:10;94926.16;;;8.62;77.64
43934;BME280;59081;42.706;23.306;2023-04-22T05:16:38;95004.50;;;9.28;77.00
43934;BME280;59081;42.706;23.306;2023-04-22T05:19:03;94991.72;;;9.21;76.23
43934;BME280;59081;42.706;23.306;2023-04-22T05:21:29;94944.69;;;9.03;75.62
43934;BME280;59081;42.706;23.306;2023-04-22T05:23:55;94972.63;;;9.30;75.33
43934;BME280;59081;42.706;23.306;2023-04-22T05:26:21;95014.47;;;9.67;74.54
43934;BME280;59081;42.706;23.306;2023-04-22T05:28:49;95036.31;;;9.87;73.97
43934;BME280;59081;42.706;23.306;2023-04-22T05:31:15;95007.53;;;9.75;73.87
43934;BME280;59081;42.706;23.306;2023-04-22T05:33:41;94974.22;;;9.44;73.09
43934;BME280;59081;42.706;23.306;2023-04-22T05:36:06;94977.69;;;9.61;72.77
43934;BME280;59081;42.706;23.306;2023-04-22T05:38:35;95058.56;;;10.21;72.12
43934;BME280;59081;42.706;23.306;2023-04-22T05:41:00;94932.91;;;9.48;71.79
43934;BME280;59081;42.706;23.306;2023-04-22T05:43:29;95039.72;;;10.20;71.14
43934;BME280;59081;42.706;23.306;2023-04-22T05:45:54;95011.84;;;10.18;70.79
43934;BME280;59081;42.706;23.306;2023-04-22T05:48:20;95061.81;;;10.70;70.21
43934;BME280;59081;42.706;23.306;2023-04-22T05:50:46;94953.03;;;10.11;69.65
43934;BME280;59081;42.706;23.306;2023-04-22T05:53:11;94952.25;;;10.11;69.26
43934;BME280;59081;42.706;23.306;2023-04-22T05:55:37;95064.53;;;10.83;69.25
43934;BME280;59081;42.706;23.306;2023-04-22T05:58:06;94959.63;;;10.14;69.61
43934;BME280;59081;42.706;23.306;2023-04-22T06:00:31;94986.84;;;10.25;70.36
43934;BME280;59081;42.706;23.306;2023-04-22T06:02:57;94954.34;;;10.07;70.30
43934;BME280;59081;42.706;23.306;2023-04-22T06:05:24;94957.91;;;10.20;69.69
43934;BME280;59081;42.706;23.306;2023-04-22T06:07:50;94921.75;;;10.05;69.91
43934;BME280;59081;42.706;23.306;2023-04-22T06:10:16;94987.09;;;10.56;70.10
43934;BME280;59081;42.706;23.306;2023-04-22T06:12:41;94961.94;;;10.03;71.01
43934;BME280;59081;42.706;23.306;2023-04-22T06:15:07;95022.56;;;10.54;71.74
43934;BME280;59081;42.706;23.306;2023-04-22T06:17:33;95021.81;;;10.53;72.33
43934;BME280;59081;42.706;23.306;2023-04-22T06:19:59;95000.53;;;10.66;71.76
43934;BME280;59081;42.706;23.306;2023-04-22T06:22:27;94902.38;;;10.09;71.22
43934;BME280;59081;42.706;23.306;2023-04-22T06:24:53;95059.56;;;11.16;71.32
43934;BME280;59081;42.706;23.306;2023-04-22T06:27:18;94985.63;;;10.89;71.12
43934;BME280;59081;42.706;23.306;2023-04-22T06:29:47;95062.75;;;11.62;69.68
43934;BME280;59081;42.706;23.306;2023-04-22T06:32:13;94968.19;;;11.05;68.55
43934;BME280;59081;42.706;23.306;2023-04-22T06:34:38;95029.00;;;11.58;68.06
43934;BME280;59081;42.706;23.306;2023-04-22T06:37:04;94930.22;;;11.09;67.11
43934;BME280;59081;42.706;23.306;2023-04-22T06:39:30;95013.81;;;11.75;67.25
43934;BME280;59081;42.706;23.306;2023-04-22T06:41:56;94982.34;;;11.50;67.47
43934;BME280;59081;42.706;23.306;2023-04-22T06:44:21;94948.56;;;11.59;66.94
43934;BME280;59081;42.706;23.306;2023-04-22T06:46:52;95057.25;;;12.49;66.43
43934;BME280;59081;42.706;23.306;2023-04-22T06:49:18;95024.22;;;12.14;66.04
43934;BME280;59081;42.706;23.306;2023-04-22T06:51:43;95016.81;;;12.33;65.35
43934;BME280;59081;42.706;23.306;2023-04-22T06:54:10;94978.59;;;12.32;65.17
43934;BME280;59081;42.706;23.306;2023-04-22T06:56:35;95060.28;;;13.04;64.26
43934;BME280;59081;42.706;23.306;2023-04-22T06:59:03;95067.53;;;13.10;64.12
43934;BME280;59081;42.706;23.306;2023-04-22T07:01:32;94972.78;;;12.70;63.82
43934;BME280;59081;42.706;23.306;2023-04-22T07:03:57;95065.03;;;13.52;62.89
43934;BME280;59081;42.706;23.306;2023-04-22T07:06:25;94953.22;;;12.46;63.62
43934;BME280;59081;42.706;23.306;2023-04-22T07:08:52;95017.59;;;13.14;62.80
43934;BME280;59081;42.706;23.306;2023-04-22T07:11:18;94962.88;;;13.00;62.24
43934;BME280;59081;42.706;23.306;2023-04-22T07:13:43;94995.19;;;13.21;61.94
43934;BME280;59081;42.706;23.306;2023-04-22T07:16:09;95039.53;;;13.48;62.07
43934;BME280;59081;42.706;23.306;2023-04-22T07:18:35;94960.41;;;12.93;61.93
43934;BME280;59081;42.706;23.306;2023-04-22T07:21:01;95065.03;;;13.52;62.48
43934;BME280;59081;42.706;23.306;2023-04-22T07:23:26;94977.00;;;13.02;62.25
43934;BME280;59081;42.706;23.306;2023-04-22T07:25:52;94988.47;;;13.40;61.95
43934;BME280;59081;42.706;23.306;2023-04-22T07:28:18;94998.63;;;13.71;60.87
43934;BME280;59081;42.706;23.306;2023-04-22T07:30:44;94968.16;;;13.71;60.19
43934;BME280;59081;42.706;23.306;2023-04-22T07:33:10;95066.75;;;14.50;59.55
43934;BME280;59081;42.706;23.306;2023-04-22T07:35:36;94964.31;;;13.96;59.10
43934;BME280;59081;42.706;23.306;2023-04-22T07:38:02;95066.50;;;14.81;58.31
43934;BME280;59081;42.706;23.306;2023-04-22T07:40:27;94950.06;;;14.21;57.52
43934;BME280;59081;42.706;23.306;2023-04-22T07:42:53;94949.97;;;14.15;57.58
43934;BME280;59081;42.706;23.306;2023-04-22T07:45:18;94958.00;;;13.95;55.77
43934;BME280;59081;42.706;23.306;2023-04-22T07:47:44;94942.50;;;13.43;57.52
43934;BME280;59081;42.706;23.306;2023-04-22T07:50:10;94969.72;;;13.26;58.25
43934;BME280;59081;42.706;23.306;2023-04-22T07:52:36;95019.84;;;13.55;58.63
43934;BME280;59081;42.706;23.306;2023-04-22T07:55:01;95039.38;;;14.16;57.84
43934;BME280;59081;42.706;23.306;2023-04-22T07:57:27;94993.31;;;14.37;56.53
43934;BME280;59081;42.706;23.306;2023-04-22T07:59:52;94999.97;;;14.72;54.72
43934;BME280;59081;42.706;23.306;2023-04-22T08:02:18;95017.25;;;14.67;55.05
43934;BME280;59081;42.706;23.306;2023-04-22T08:04:44;94949.03;;;14.09;55.17
43934;BME280;59081;42.706;23.306;2023-04-22T08:07:09;95022.09;;;14.30;56.13
43934;BME280;59081;42.706;23.306;2023-04-22T08:09:35;94942.31;;;14.01;55.96
43934;BME280;59081;42.706;23.306;2023-04-22T08:12:01;95025.19;;;14.32;55.20
43934;BME280;59081;42.706;23.306;2023-04-22T08:14:27;94937.41;;;13.78;55.73
43934;BME280;59081;42.706;23.306;2023-04-22T08:16:53;94939.00;;;14.21;54.99
43934;BME280;59081;42.706;23.306;2023-04-22T08:19:19;94897.56;;;14.36;52.93
43934;BME280;59081;42.706;23.306;2023-04-22T08:21:45;95016.13;;;15.40;51.74
43934;BME280;59081;42.706;23.306;2023-04-22T08:24:12;94957.53;;;15.14;50.93
43934;BME280;59081;42.706;23.306;2023-04-22T08:26:38;94933.31;;;15.23;50.14
43934;BME280;59081;42.706;23.306;2023-04-22T08:29:05;95042.69;;;16.18;49.59
43934;BME280;59081;42.706;23.306;2023-04-22T08:31:32;94954.13;;;15.19;50.14
43934;BME280;59081;42.706;23.306;2023-04-22T08:33:58;95037.56;;;15.39;50.35
43934;BME280;59081;42.706;23.306;2023-04-22T08:36:23;94899.34;;;14.81;49.79
43934;BME280;59081;42.706;23.306;2023-04-22T08:38:51;94925.91;;;15.20;49.74
43934;BME280;59081;42.706;23.306;2023-04-22T08:41:17;94895.41;;;14.96;48.95
43934;BME280;59081;42.706;23.306;2023-04-22T08:43:46;94949.44;;;15.73;48.79
43934;BME280;59081;42.706;23.306;2023-04-22T08:46:13;94939.03;;;16.26;47.73
43934;BME280;59081;42.706;23.306;2023-04-22T08:48:42;95015.94;;;17.09;46.36
43934;BME280;59081;42.706;23.306;2023-04-22T08:51:08;94934.31;;;16.97;45.49
43934;BME280;59081;42.706;23.306;2023-04-22T08:53:33;94977.72;;;17.44;44.70
43934;BME280;59081;42.706;23.306;2023-04-22T08:56:00;94877.75;;;17.05;43.37
43934;BME280;59081;42.706;23.306;2023-04-22T08:58:27;94933.63;;;17.63;42.27
43934;BME280;59081;42.706;23.306;2023-04-22T09:00:54;95000.41;;;17.98;42.10
43934;BME280;59081;42.706;23.306;2023-04-22T09:03:20;94907.66;;;17.51;41.85
43934;BME280;59081;42.706;23.306;2023-04-22T09:05:50;94953.81;;;17.98;41.91
43934;BME280;59081;42.706;23.306;2023-04-22T09:08:17;94997.53;;;18.38;41.79
43934;BME280;59081;42.706;23.306;2023-04-22T09:10:47;94947.72;;;18.26;41.49
43934;BME280;59081;42.706;23.306;2023-04-22T09:13:15;94891.00;;;18.03;41.47
43934;BME280;59081;42.706;23.306;2023-04-22T09:15:41;94950.41;;;18.72;40.15
43934;BME280;59081;42.706;23.306;2023-04-22T09:18:08;94995.38;;;18.80;40.39
43934;BME280;59081;42.706;23.306;2023-04-22T09:20:34;94966.69;;;18.48;40.68
43934;BME280;59081;42.706;23.306;2023-04-22T09:23:03;94889.88;;;18.47;40.34
43934;BME280;59081;42.706;23.306;2023-04-22T09:25:32;94899.16;;;18.38;40.36
43934;BME280;59081;42.706;23.306;2023-04-22T09:27:59;94928.91;;;18.15;40.02
43934;BME280;59081;42.706;23.306;2023-04-22T09:30:33;94992.94;;;18.61;40.70
43934;BME280;59081;42.706;23.306;2023-04-22T09:33:01;94936.03;;;18.22;39.90
43934;BME280;59081;42.706;23.306;2023-04-22T09:35:33;94986.16;;;18.68;40.12
43934;BME280;59081;42.706;23.306;2023-04-22T09:38:02;94874.75;;;18.59;39.18
43934;BME280;59081;42.706;23.306;2023-04-22T09:40:29;94898.81;;;18.93;35.50
43934;BME280;59081;42.706;23.306;2023-04-22T09:42:58;94979.91;;;19.58;35.68
43934;BME280;59081;42.706;23.306;2023-04-22T09:47:55;94949.56;;;19.88;36.52
43934;BME280;59081;42.706;23.306;2023-04-22T09:50:23;94838.25;;;19.10;37.34
43934;BME280;59081;42.706;23.306;2023-04-22T09:52:59;94934.69;;;19.54;36.31
43934;BME280;59081;42.706;23.306;2023-04-22T09:55:28;94909.00;;;18.59;35.11
43934;BME280;59081;42.706;23.306;2023-04-22T09:57:55;94984.13;;;19.00;35.90
43934;BME280;59081;42.706;23.306;2023-04-22T10:00:25;94887.72;;;18.30;36.23
43934;BME280;59081;42.706;23.306;2023-04-22T10:02:54;94924.56;;;18.14;35.89
43934;BME280;59081;42.706;23.306;2023-04-22T10:05:19;94946.97;;;18.25;36.89
43934;BME280;59081;42.706;23.306;2023-04-22T10:07:45;94859.13;;;17.58;35.56
43934;BME280;59081;42.706;23.306;2023-04-22T10:10:11;94925.78;;;17.82;36.34
43934;BME280;59081;42.706;23.306;2023-04-22T10:12:37;94881.16;;;17.15;38.07
43934;BME280;59081;42.706;23.306;2023-04-22T10:15:03;94933.72;;;17.68;36.06
43934;BME280;59081;42.706;23.306;2023-04-22T10:17:32;94968.34;;;18.08;35.43
43934;BME280;59081;42.706;23.306;2023-04-22T10:19:59;94829.13;;;17.67;34.20
43934;BME280;59081;42.706;23.306;2023-04-22T10:22:32;94876.16;;;18.12;33.10
43934;BME280;59081;42.706;23.306;2023-04-22T10:24:58;94829.13;;;17.93;35.71
43934;BME280;59081;42.706;23.306;2023-04-22T10:27:24;94929.69;;;18.21;36.72
43934;BME280;59081;42.706;23.306;2023-04-22T10:29:50;94899.41;;;18.34;36.37
43934;BME280;59081;42.706;23.306;2023-04-22T10:34:48;94880.16;;;18.68;34.27
43934;BME280;59081;42.706;23.306;2023-04-22T10:37:17;94896.28;;;18.95;33.14
43934;BME280;59081;42.706;23.306;2023-04-22T10:40:10;94944.41;;;19.75;32.97
43934;BME280;59081;42.706;23.306;2023-04-22T10:42:38;94858.97;;;19.46;33.61
43934;BME280;59081;42.706;23.306;2023-04-22T10:45:08;94890.56;;;19.80;33.72
43934;BME280;59081;42.706;23.306;2023-04-22T10:47:37;94854.25;;;19.92;31.04
43934;BME280;59081;42.706;23.306;2023-04-22T10:50:19;94943.09;;;20.58;30.45
43934;BME280;59081;42.706;23.306;2023-04-22T10:52:57;94844.84;;;19.95;30.38
43934;BME280;59081;42.706;23.306;2023-04-22T10:55:24;94837.50;;;19.97;29.89
43934;BME280;59081;42.706;23.306;2023-04-22T10:57:53;94860.38;;;20.12;30.32
43934;BME280;59081;42.706;23.306;2023-04-22T11:00:39;94924.50;;;20.72;30.22
43934;BME280;59081;42.706;23.306;2023-04-22T11:03:10;94803.69;;;19.95;29.59
43934;BME280;59081;42.706;23.306;2023-04-22T11:05:37;94832.69;;;20.26;29.24
43934;BME280;59081;42.706;23.306;2023-04-22T11:08:06;94878.22;;;20.48;30.29
43934;BME280;59081;42.706;23.306;2023-04-22T11:10:40;94877.69;;;20.72;29.87
43934;BME280;59081;42.706;23.306;2023-04-22T11:13:08;94826.06;;;20.34;30.60
43934;BME280;59081;42.706;23.306;2023-04-22T11:15:35;94941.28;;;20.94;31.54
43934;BME280;59081;42.706;23.306;2023-04-22T11:18:02;94926.44;;;19.88;32.29
43934;BME280;59081;42.706;23.306;2023-04-22T11:20:28;94914.78;;;20.06;33.00
43934;BME280;59081;42.706;23.306;2023-04-22T11:22:56;94858.38;;;19.20;34.54
43934;BME280;59081;42.706;23.306;2023-04-22T11:25:23;94862.59;;;18.62;35.31
43934;BME280;59081;42.706;23.306;2023-04-22T11:27:49;94935.47;;;18.43;37.59
43934;BME280;59081;42.706;23.306;2023-04-22T11:30:17;94918.31;;;18.88;37.76
43934;BME280;59081;42.706;23.306;2023-04-22T11:32:48;94909.47;;;18.95;36.40
43934;BME280;59081;42.706;23.306;2023-04-22T11:35:32;94981.78;;;19.30;37.19
43934;BME280;59081;42.706;23.306;2023-04-22T11:38:04;94948.94;;;18.76;38.57
43934;BME280;59081;42.706;23.306;2023-04-22T11:40:37;94979.16;;;19.15;37.84
43934;BME280;59081;42.706;23.306;2023-04-22T11:43:05;94990.97;;;19.36;37.17
43934;BME280;59081;42.706;23.306;2023-04-22T11:45:33;94953.31;;;18.83;38.33
43934;BME280;59081;42.706;23.306;2023-04-22T11:48:00;94876.69;;;18.47;38.09
43934;BME280;59081;42.706;23.306;2023-04-22T11:50:33;94904.44;;;18.62;38.12
43934;BME280;59081;42.706;23.306;2023-04-22T11:53:00;94993.63;;;18.82;39.52
43934;BME280;59081;42.706;23.306;2023-04-22T11:55:31;94899.69;;;18.73;38.93
43934;BME280;59081;42.706;23.306;2023-04-22T11:58:04;94882.97;;;19.16;37.75
43934;BME280;59081;42.706;23.306;2023-04-22T12:00:32;94986.53;;;19.61;37.75
43934;BME280;59081;42.706;23.306;2023-04-22T12:03:00;94903.00;;;19.15;37.37
43934;BME280;59081;42.706;23.306;2023-04-22T12:08:14;94881.78;;;19.34;37.57
43934;BME280;59081;42.706;23.306;2023-04-22T12:10:45;94988.78;;;19.51;39.24
43934;BME280;59081;42.706;23.306;2023-04-22T12:13:22;95010.53;;;19.90;38.76
43934;BME280;59081;42.706;23.306;2023-04-22T12:15:52;94978.06;;;20.09;37.21
43934;BME280;59081;42.706;23.306;2023-04-22T12:18:53;95006.84;;;20.21;37.46
43934;BME280;59081;42.706;23.306;2023-04-22T12:21:24;94915.22;;;19.82;36.10
43934;BME280;59081;42.706;23.306;2023-04-22T12:23:58;94899.91;;;19.61;37.31
43934;BME280;59081;42.706;23.306;2023-04-22T12:26:24;94995.88;;;20.06;37.52
43934;BME280;59081;42.706;23.306;2023-04-22T12:28:55;94893.34;;;19.69;36.71
43934;BME280;59081;42.706;23.306;2023-04-22T12:31:40;95002.09;;;20.66;35.79
43934;BME280;59081;42.706;23.306;2023-04-22T12:34:06;94964.75;;;19.81;37.17
43934;BME280;59081;42.706;23.306;2023-04-22T12:36:31;94975.25;;;20.03;37.51
43934;BME280;59081;42.706;23.306;2023-04-22T12:38:57;94925.72;;;20.15;37.24
43934;BME280;59081;42.706;23.306;2023-04-22T12:41:23;94955.78;;;20.42;36.69
43934;BME280;59081;42.706;23.306;2023-04-22T12:43:48;94931.38;;;20.54;36.07
43934;BME280;59081;42.706;23.306;2023-04-22T12:46:14;94870.78;;;20.12;36.30
43934;BME280;59081;42.706;23.306;2023-04-22T12:48:42;94943.84;;;20.59;36.17
43934;BME280;59081;42.706;23.306;2023-04-22T12:51:07;94985.31;;;20.88;35.55
43934;BME280;59081;42.706;23.306;2023-04-22T12:53:33;94923.75;;;20.77;35.53
43934;BME280;59081;42.706;23.306;2023-04-22T12:56:01;94922.72;;;20.58;35.69
43934;BME280;59081;42.706;23.306;2023-04-22T12:58:27;94982.50;;;21.27;35.35
43934;BME280;59081;42.706;23.306;2023-04-22T13:00:52;94906.91;;;20.99;35.55
43934;BME280;59081;42.706;23.306;2023-04-22T13:03:18;94886.56;;;20.82;35.64